createdAt,value
2023-03-04T00:00:27.813Z,91.93
2023-03-04T00:03:00.882Z,91.55
2023-03-04T00:05:33.947Z,91.71
2023-03-04T00:08:08.476Z,92.14
2023-03-04T00:10:41.541Z,92.05
2023-03-04T00:13:14.528Z,91.99
2023-03-04T00:15:47.865Z,92.77
2023-03-04T00:18:21.741Z,91.97
2023-03-04T00:20:55.419Z,92.70
2023-03-04T00:23:29.837Z,93.12
2023-03-04T00:26:02.871Z,92.60
2023-03-04T00:28:36.017Z,92.53
2023-03-04T00:31:09.637Z,92.98
2023-03-04T00:33:43.491Z,92.87
2023-03-04T00:36:16.692Z,92.63
2023-03-04T00:38:51.032Z,92.34
2023-03-04T00:41:24.075Z,93.06
2023-03-04T00:43:57.085Z,92.89
2023-03-04T00:46:30.119Z,93.32
2023-03-04T00:49:03.184Z,92.37
2023-03-04T00:51:36.211Z,93.14
2023-03-04T00:54:10.606Z,92.49
2023-03-04T00:56:43.616Z,92.82
2023-03-04T00:59:16.635Z,92.71
2023-03-04T01:01:49.692Z,91.98
2023-03-04T01:04:22.726Z,92.11
2023-03-04T01:06:55.837Z,92.90
2023-03-04T01:09:30.226Z,91.97
2023-03-04T01:12:03.480Z,93.35
2023-03-04T01:14:37.039Z,92.42
2023-03-04T01:17:12.137Z,93.00
2023-03-04T01:19:45.222Z,93.95
2023-03-04T01:22:19.089Z,93.67
2023-03-04T01:24:53.436Z,92.88
2023-03-04T01:27:26.580Z,93.16
2023-03-04T01:30:01.595Z,93.68
2023-03-04T01:32:34.752Z,93.95
2023-03-04T01:35:09.223Z,93.45
2023-03-04T01:37:42.240Z,93.60
2023-03-04T01:40:16.981Z,93.12
2023-03-04T01:42:50.147Z,92.72
2023-03-04T01:45:23.485Z,92.97
2023-03-04T01:47:56.550Z,94.25
2023-03-04T01:50:34.008Z,93.81
2023-03-04T01:53:07.210Z,93.13
2023-03-04T01:55:42.010Z,93.14
2023-03-04T01:58:14.995Z,92.64
2023-03-04T02:00:48.080Z,93.79
2023-03-04T02:03:23.229Z,92.62
2023-03-04T02:05:57.428Z,93.91
2023-03-04T02:08:30.727Z,93.58
2023-03-04T02:11:05.454Z,93.16
2023-03-04T02:13:38.594Z,92.70
2023-03-04T02:16:12.819Z,92.77
2023-03-04T02:18:45.901Z,93.90
2023-03-04T02:21:25.975Z,93.70
2023-03-04T02:24:08.212Z,93.92
2023-03-04T02:26:43.949Z,93.14
2023-03-04T02:29:18.534Z,93.74
2023-03-04T02:31:53.858Z,93.16
2023-03-04T02:34:31.582Z,93.16
2023-03-04T02:37:05.726Z,92.83
2023-03-04T02:39:43.423Z,93.73
2023-03-04T02:42:19.348Z,93.89
2023-03-04T02:45:02.120Z,93.66
2023-03-04T02:47:35.161Z,92.56
2023-03-04T02:50:09.655Z,94.01
2023-03-04T02:52:42.681Z,92.98
2023-03-04T02:55:15.947Z,93.73
2023-03-04T02:57:50.286Z,93.50
2023-03-04T03:00:23.541Z,93.97
2023-03-04T03:02:57.063Z,93.58
2023-03-04T03:05:33.376Z,93.00
2023-03-04T03:08:07.122Z,93.80
2023-03-04T03:10:40.175Z,93.39
2023-03-04T03:13:14.467Z,92.62
2023-03-04T03:15:49.718Z,93.48
2023-03-04T03:18:23.127Z,93.14
2023-03-04T03:20:56.158Z,92.03
2023-03-04T03:23:29.173Z,91.99
2023-03-04T03:26:02.289Z,92.14
2023-03-04T03:28:36.901Z,92.94
2023-03-04T03:31:10.641Z,92.60
2023-03-04T03:33:43.717Z,93.29
2023-03-04T03:36:16.804Z,92.03
2023-03-04T03:38:49.861Z,92.15
2023-03-04T03:41:22.985Z,92.21
2023-03-04T03:43:57.377Z,92.18
2023-03-04T03:46:30.899Z,93.67
2023-03-04T03:49:03.940Z,91.90
2023-03-04T03:51:36.994Z,92.66
2023-03-04T03:54:10.309Z,92.64
2023-03-04T03:56:43.351Z,92.25
2023-03-04T03:59:17.738Z,91.83
2023-03-04T04:01:50.961Z,92.49
2023-03-04T04:04:24.346Z,92.50
2023-03-04T04:06:57.380Z,93.31
2023-03-04T04:09:30.430Z,92.34
2023-03-04T04:12:05.990Z,93.16
2023-03-04T04:14:40.709Z,93.46
2023-03-04T04:17:14.099Z,92.16
2023-03-04T04:19:47.105Z,92.08
2023-03-04T04:22:22.145Z,93.23
2023-03-04T04:24:55.308Z,92.91
2023-03-04T04:27:28.398Z,92.61
2023-03-04T04:30:02.840Z,92.58
2023-03-04T04:32:35.952Z,91.59
2023-03-04T04:35:09.892Z,91.61
2023-03-04T04:37:42.968Z,92.02
2023-03-04T04:40:16.724Z,91.85
2023-03-04T04:42:49.808Z,93.20
2023-03-04T04:45:25.701Z,91.96
2023-03-04T04:47:58.793Z,92.54
2023-03-04T04:50:33.058Z,93.49
2023-03-04T04:53:06.216Z,92.35
2023-03-04T04:55:39.248Z,91.87
2023-03-04T04:58:12.285Z,92.25
2023-03-04T05:00:46.694Z,92.32
2023-03-04T05:03:21.445Z,92.53
2023-03-04T05:05:56.181Z,91.98
2023-03-04T05:08:29.360Z,92.30
2023-03-04T05:11:02.784Z,93.30
2023-03-04T05:13:36.480Z,92.80
2023-03-04T05:16:11.258Z,92.19
2023-03-04T05:18:44.987Z,92.80
2023-03-04T05:21:18.102Z,92.41
2023-03-04T05:23:52.225Z,91.66
2023-03-04T05:26:25.390Z,91.81
2023-03-04T05:28:58.440Z,92.43
2023-03-04T05:31:32.862Z,92.77
2023-03-04T05:34:05.962Z,91.98
2023-03-04T05:36:39.597Z,92.43
2023-03-04T05:39:13.440Z,92.47
2023-03-04T05:41:46.437Z,92.23
2023-03-04T05:44:19.692Z,92.28
2023-03-04T05:46:54.092Z,92.07
2023-03-04T05:49:27.211Z,92.35
2023-03-04T05:52:00.202Z,93.97
2023-03-04T05:54:33.241Z,93.74
2023-03-04T05:57:06.497Z,92.62
2023-03-04T05:59:39.524Z,92.50
2023-03-04T06:02:14.015Z,92.56
2023-03-04T06:04:47.031Z,90.81
2023-03-04T06:07:20.134Z,90.86
2023-03-04T06:09:53.176Z,90.83
2023-03-04T06:12:26.372Z,91.01
2023-03-04T06:14:59.419Z,90.88
2023-03-04T06:17:34.017Z,91.47
2023-03-04T06:20:09.001Z,92.25
2023-03-04T06:22:42.072Z,93.09
2023-03-04T06:25:15.114Z,93.58
2023-03-04T06:27:50.564Z,92.38
2023-03-04T06:30:24.781Z,92.24
2023-03-04T06:32:59.128Z,92.96
2023-03-04T06:35:32.306Z,92.38
2023-03-04T06:38:05.421Z,92.25
2023-03-04T06:40:38.454Z,90.89
2023-03-04T06:43:11.495Z,91.46
2023-03-04T06:45:44.702Z,91.84
2023-03-04T06:48:19.378Z,91.94
2023-03-04T06:50:52.440Z,90.37
2023-03-04T06:53:25.553Z,90.70
2023-03-04T06:55:58.603Z,89.60
2023-03-04T06:58:31.708Z,89.61
2023-03-04T07:01:13.614Z,90.40
2023-03-04T07:03:49.196Z,90.09
2023-03-04T07:06:25.006Z,90.19
2023-03-04T07:08:58.290Z,91.51
2023-03-04T07:11:31.457Z,91.80
2023-03-04T07:14:04.568Z,91.20
2023-03-04T07:16:37.640Z,90.75
2023-03-04T07:19:12.027Z,90.91
2023-03-04T07:21:45.113Z,92.83
2023-03-04T07:24:18.174Z,93.31
2023-03-04T07:26:51.208Z,93.40
2023-03-04T07:29:24.312Z,93.66
2023-03-04T07:31:57.574Z,93.34
2023-03-04T07:34:32.113Z,93.95
2023-03-04T07:37:05.439Z,94.64
2023-03-04T07:39:38.460Z,93.82
2023-03-04T07:42:11.487Z,92.98
2023-03-04T07:44:44.517Z,92.32
2023-03-04T07:47:17.531Z,92.17
2023-03-04T07:49:51.985Z,92.30
2023-03-04T07:52:25.162Z,91.97
2023-03-04T07:54:58.239Z,92.73
2023-03-04T07:57:31.284Z,91.98
2023-03-04T08:00:04.860Z,91.54
2023-03-04T08:02:38.003Z,91.41
2023-03-04T08:05:12.559Z,91.43
2023-03-04T08:07:45.642Z,90.89
2023-03-04T08:10:19.003Z,90.83
2023-03-04T08:12:52.092Z,91.06
2023-03-04T08:15:27.251Z,90.34
2023-03-04T08:18:00.529Z,90.31
2023-03-04T08:20:35.236Z,90.00
2023-03-04T08:23:08.293Z,90.60
2023-03-04T08:25:42.516Z,90.35
2023-03-04T08:28:33.872Z,90.50
2023-03-04T08:31:07.330Z,90.07
2023-03-04T08:33:40.503Z,89.88
2023-03-04T08:36:15.592Z,90.52
2023-03-04T08:38:48.531Z,90.56
2023-03-04T08:41:22.740Z,89.10
2023-03-04T08:43:56.487Z,88.55
2023-03-04T08:46:29.863Z,89.17
2023-03-04T08:49:02.901Z,89.66
2023-03-04T08:51:37.312Z,89.91
2023-03-04T08:54:10.278Z,88.91
2023-03-04T08:56:43.505Z,89.38
2023-03-04T08:59:16.584Z,89.71
2023-03-04T09:01:49.587Z,89.63
2023-03-04T09:04:23.177Z,89.35
2023-03-04T09:06:57.517Z,89.38
2023-03-04T09:09:30.649Z,88.87
2023-03-04T09:12:03.977Z,89.44
2023-03-04T09:14:37.098Z,89.06
2023-03-04T09:17:10.087Z,88.85
2023-03-04T09:19:43.056Z,89.12
2023-03-04T09:22:17.351Z,88.75
2023-03-04T09:24:50.322Z,87.62
2023-03-04T09:27:23.411Z,87.94
2023-03-04T09:29:56.366Z,87.95
2023-03-04T09:32:29.467Z,86.88
2023-03-04T09:35:02.577Z,88.09
2023-03-04T09:37:39.212Z,87.49
2023-03-04T09:40:19.408Z,87.98
2023-03-04T09:42:56.273Z,88.02
2023-03-04T09:45:38.594Z,87.74
2023-03-04T09:48:17.730Z,87.10
2023-03-04T09:51:08.032Z,86.84
2023-03-04T09:53:54.160Z,87.14
2023-03-04T09:56:28.675Z,86.85
2023-03-04T09:59:16.479Z,86.67
2023-03-04T10:01:53.411Z,85.54
2023-03-04T10:04:36.051Z,87.01
2023-03-04T10:07:19.096Z,86.93
2023-03-04T10:10:01.193Z,85.59
2023-03-04T10:12:40.101Z,85.08
2023-03-04T10:15:25.016Z,85.50
2023-03-04T10:18:03.855Z,86.50
2023-03-04T10:20:51.120Z,87.06
2023-03-04T10:23:27.896Z,86.83
2023-03-04T10:26:13.636Z,85.82
2023-03-04T10:28:46.578Z,86.32
2023-03-04T10:31:30.694Z,86.26
2023-03-04T10:34:04.349Z,84.77
2023-03-04T10:36:57.313Z,84.91
2023-03-04T10:39:32.989Z,83.82
2023-03-04T10:42:23.238Z,84.80
2023-03-04T10:44:59.119Z,83.73
2023-03-04T10:47:35.246Z,83.27
2023-03-04T10:50:22.924Z,81.63
2023-03-04T10:52:57.488Z,82.70
2023-03-04T10:55:43.718Z,81.20
2023-03-04T10:58:19.469Z,81.19
2023-03-04T11:01:03.749Z,81.74
2023-03-04T11:03:38.594Z,81.76
2023-03-04T11:06:18.627Z,81.88
2023-03-04T11:08:57.474Z,81.93
2023-03-04T11:11:35.117Z,80.01
2023-03-04T11:14:23.390Z,81.37
2023-03-04T11:16:59.344Z,81.66
2023-03-04T11:19:39.101Z,80.84
2023-03-04T11:22:16.523Z,79.64
2023-03-04T11:24:58.635Z,78.93
2023-03-04T11:27:47.089Z,78.67
2023-03-04T11:30:42.213Z,79.49
2023-03-04T11:33:22.719Z,78.97
2023-03-04T11:36:09.442Z,79.02
2023-03-04T11:38:47.196Z,77.64
2023-03-04T11:41:27.478Z,76.30
2023-03-04T11:44:01.805Z,75.31
2023-03-04T11:46:58.184Z,76.96
2023-03-04T11:50:01.913Z,77.12
2023-03-04T11:52:57.017Z,76.32
2023-03-04T11:55:39.354Z,75.79
2023-03-04T11:58:52.482Z,74.53
2023-03-04T12:01:35.655Z,74.23
2023-03-04T12:04:35.149Z,74.13
2023-03-04T12:07:36.169Z,73.89
2023-03-04T12:10:22.691Z,74.17
2023-03-04T12:13:22.442Z,72.72
2023-03-04T12:16:09.486Z,71.74
2023-03-04T12:19:01.859Z,72.26
2023-03-04T12:22:18.063Z,70.69
2023-03-04T12:25:18.826Z,70.25
2023-03-04T12:28:04.518Z,71.12
2023-03-04T12:30:55.865Z,70.84
2023-03-04T12:33:39.994Z,69.45
2023-03-04T12:36:23.351Z,69.51
2023-03-04T12:39:27.032Z,69.36
2023-03-04T12:42:13.885Z,68.63
2023-03-04T12:44:55.167Z,68.34
2023-03-04T12:47:37.129Z,68.79
2023-03-04T12:50:31.743Z,67.53
2023-03-04T12:53:18.660Z,68.01
2023-03-04T12:55:57.463Z,67.71
2023-03-04T12:58:33.569Z,68.99
2023-03-04T13:01:15.989Z,70.06
2023-03-04T13:04:00.698Z,69.49
2023-03-04T13:06:45.325Z,68.69
2023-03-04T13:09:28.297Z,69.03
2023-03-04T13:12:15.847Z,69.43
2023-03-04T13:15:29.549Z,69.91
2023-03-04T13:18:35.132Z,70.23
2023-03-04T13:21:24.933Z,70.20
2023-03-04T13:23:59.423Z,70.48
2023-03-04T13:26:34.946Z,69.80
2023-03-04T13:29:34.505Z,70.98
2023-03-04T13:32:12.551Z,70.48
2023-03-04T13:34:51.834Z,69.98
2023-03-04T13:37:32.073Z,70.66
2023-03-04T13:40:37.999Z,71.56
2023-03-04T13:43:28.543Z,71.69
2023-03-04T13:46:32.484Z,71.45
2023-03-04T13:49:08.588Z,71.54
2023-03-04T13:51:45.003Z,71.38
2023-03-04T13:54:31.448Z,71.49
2023-03-04T13:57:19.600Z,71.86
2023-03-04T13:59:57.164Z,71.36
2023-03-04T14:02:35.879Z,71.64
2023-03-04T14:05:13.016Z,71.66
2023-03-04T14:07:46.345Z,71.97
2023-03-04T14:10:25.146Z,72.27
2023-03-04T14:13:00.209Z,70.98
2023-03-04T14:15:35.421Z,71.71
2023-03-04T14:18:12.887Z,72.18
2023-03-04T14:20:50.810Z,72.65
2023-03-04T14:23:27.332Z,72.49
2023-03-04T14:26:11.273Z,72.85
2023-03-04T14:28:47.075Z,73.23
2023-03-04T14:31:22.602Z,73.13
2023-03-04T14:34:02.159Z,73.75
2023-03-04T14:36:37.434Z,73.84
2023-03-04T14:39:17.677Z,74.19
2023-03-04T14:41:52.111Z,72.61
2023-03-04T14:44:35.727Z,72.68
2023-03-04T14:47:17.004Z,71.53
2023-03-04T14:49:52.027Z,71.65
2023-03-04T14:52:38.546Z,70.38
2023-03-04T14:55:25.777Z,71.36
2023-03-04T14:58:09.373Z,71.83
2023-03-04T15:00:43.163Z,71.49
2023-03-04T15:03:24.156Z,72.36
2023-03-04T15:06:09.311Z,73.01
2023-03-04T15:08:43.214Z,72.46
2023-03-04T15:11:25.089Z,72.74
2023-03-04T15:14:00.888Z,71.29
2023-03-04T15:16:56.433Z,72.54
2023-03-04T15:19:30.866Z,71.73
2023-03-04T15:22:09.495Z,71.57
2023-03-04T15:24:42.506Z,71.39
2023-03-04T15:27:17.011Z,71.28
2023-03-04T15:29:50.021Z,71.30
2023-03-04T15:32:24.261Z,72.12
2023-03-04T15:34:57.934Z,71.92
2023-03-04T15:37:32.298Z,72.54
2023-03-04T15:40:15.236Z,72.79
2023-03-04T15:42:48.299Z,72.96
2023-03-04T15:45:25.837Z,72.30
2023-03-04T15:47:59.435Z,72.04
2023-03-04T15:50:32.467Z,73.08
2023-03-04T15:53:10.624Z,73.35
2023-03-04T15:55:46.286Z,73.00
2023-03-04T15:58:19.625Z,73.08
2023-03-04T16:00:52.632Z,73.24
2023-03-04T16:03:25.713Z,72.67
2023-03-04T16:05:59.466Z,72.53
2023-03-04T16:08:33.862Z,72.40
2023-03-04T16:11:07.219Z,73.24
2023-03-04T16:13:40.197Z,73.31
2023-03-04T16:16:14.354Z,73.10
2023-03-04T16:18:47.471Z,73.12
2023-03-04T16:21:23.958Z,73.35
2023-03-04T16:23:58.345Z,73.15
2023-03-04T16:26:32.411Z,72.30
2023-03-04T16:29:05.403Z,73.01
2023-03-04T16:31:38.432Z,73.53
2023-03-04T16:34:11.465Z,73.46
2023-03-04T16:36:44.566Z,73.94
2023-03-04T16:39:23.270Z,73.58
2023-03-04T16:41:56.247Z,72.94
2023-03-04T16:44:29.246Z,73.41
2023-03-04T16:47:05.296Z,73.24
2023-03-04T16:49:38.376Z,73.16
2023-03-04T16:52:25.489Z,73.33
2023-03-04T16:55:00.275Z,73.73
2023-03-04T16:57:33.251Z,74.12
2023-03-04T17:00:08.742Z,73.20
2023-03-04T17:02:42.036Z,74.15
2023-03-04T17:05:21.125Z,73.66
2023-03-04T17:07:54.283Z,73.06
2023-03-04T17:10:28.905Z,73.67
2023-03-04T17:13:02.065Z,73.37
2023-03-04T17:15:35.067Z,72.91
2023-03-04T17:18:08.038Z,72.41
2023-03-04T17:20:42.100Z,72.51
2023-03-04T17:23:15.083Z,72.56
2023-03-04T17:25:57.334Z,71.60
2023-03-04T17:28:30.774Z,71.99
2023-03-04T17:31:10.570Z,71.98
2023-03-04T17:33:44.651Z,72.05
2023-03-04T17:36:19.724Z,71.91
2023-03-04T17:38:52.738Z,72.16
2023-03-04T17:41:27.421Z,72.49
2023-03-04T17:44:01.670Z,72.23
2023-03-04T17:46:34.732Z,72.35
2023-03-04T17:49:07.718Z,71.83
2023-03-04T17:51:41.161Z,72.92
2023-03-04T17:54:14.148Z,73.57
2023-03-04T17:56:48.491Z,73.14
2023-03-04T17:59:21.584Z,72.72
2023-03-04T18:01:54.615Z,72.23
2023-03-04T18:04:27.823Z,72.23
2023-03-04T18:07:00.805Z,72.49
2023-03-04T18:09:33.818Z,72.03
2023-03-04T18:12:08.920Z,72.68
2023-03-04T18:14:42.310Z,72.80
2023-03-04T18:17:15.295Z,72.60
2023-03-04T18:19:48.492Z,72.99
2023-03-04T18:22:21.501Z,72.91
2023-03-04T18:24:54.520Z,73.22
2023-03-04T18:27:28.927Z,73.79
2023-03-04T18:30:01.916Z,73.08
2023-03-04T18:32:50.726Z,73.88
2023-03-04T18:35:24.560Z,73.45
2023-03-04T18:37:57.668Z,73.75
2023-03-04T18:40:31.704Z,73.85
2023-03-04T18:43:06.086Z,73.65
2023-03-04T18:45:39.151Z,73.53
2023-03-04T18:48:12.219Z,73.68
2023-03-04T18:50:45.237Z,73.26
2023-03-04T18:53:18.205Z,73.27
2023-03-04T18:55:52.943Z,73.58
2023-03-04T18:58:27.591Z,73.99
2023-03-04T19:01:05.468Z,74.18
2023-03-04T19:03:39.531Z,74.55
2023-03-04T19:06:12.807Z,74.51
2023-03-04T19:08:45.939Z,74.43
2023-03-04T19:11:19.030Z,73.89
2023-03-04T19:13:53.800Z,74.17
2023-03-04T19:16:26.863Z,74.49
2023-03-04T19:18:59.966Z,75.11
2023-03-04T19:21:33.681Z,75.64
2023-03-04T19:24:07.712Z,75.08
2023-03-04T19:26:41.419Z,76.04
2023-03-04T19:29:16.073Z,75.14
2023-03-04T19:31:49.099Z,74.92
2023-03-04T19:34:22.307Z,74.74
2023-03-04T19:36:55.282Z,74.52
2023-03-04T19:39:28.367Z,74.65
2023-03-04T19:42:01.445Z,75.00
2023-03-04T19:44:36.240Z,75.26
2023-03-04T19:47:09.331Z,75.53
2023-03-04T19:49:42.307Z,75.12
2023-03-04T19:52:16.418Z,75.11
2023-03-04T19:54:49.403Z,75.73
2023-03-04T19:57:22.409Z,74.85
2023-03-04T19:59:56.753Z,74.90
2023-03-04T20:02:29.768Z,74.27
2023-03-04T20:05:02.941Z,75.46
2023-03-04T20:07:36.007Z,74.97
2023-03-04T20:10:11.469Z,75.29
2023-03-04T20:12:44.533Z,74.93
2023-03-04T20:15:19.144Z,74.60
2023-03-04T20:17:52.114Z,75.20
2023-03-04T20:20:28.707Z,74.81
2023-03-04T20:23:01.762Z,74.94
2023-03-04T20:25:34.796Z,75.58
2023-03-04T20:28:07.815Z,75.58
2023-03-04T20:30:42.158Z,75.76
2023-03-04T20:33:15.173Z,75.26
2023-03-04T20:35:48.160Z,75.53
2023-03-04T20:38:21.228Z,76.11
2023-03-04T20:40:54.246Z,76.38
2023-03-04T20:43:28.685Z,77.19
2023-03-04T20:46:28.270Z,76.25
2023-03-04T20:49:04.765Z,77.25
2023-03-04T20:51:38.131Z,77.03
2023-03-04T20:54:11.586Z,76.71
2023-03-04T20:56:44.679Z,76.50
2023-03-04T20:59:17.794Z,77.76
2023-03-04T21:01:52.373Z,77.39
2023-03-04T21:04:25.518Z,76.84
2023-03-04T21:06:58.753Z,77.43
2023-03-04T21:09:31.869Z,77.28
2023-03-04T21:12:05.547Z,77.55
2023-03-04T21:14:38.761Z,77.59
2023-03-04T21:17:13.906Z,77.07
2023-03-04T21:19:46.919Z,78.33
2023-03-04T21:22:21.248Z,77.72
2023-03-04T21:24:54.386Z,77.65
2023-03-04T21:27:28.019Z,76.69
2023-03-04T21:30:01.163Z,77.67
2023-03-04T21:32:35.710Z,77.36
2023-03-04T21:35:14.297Z,78.26
2023-03-04T21:37:48.551Z,78.50
2023-03-04T21:40:21.726Z,78.65
2023-03-04T21:42:54.756Z,79.66
2023-03-04T21:45:27.794Z,79.05
2023-03-04T21:48:02.173Z,79.49
2023-03-04T21:50:35.197Z,78.98
2023-03-04T21:53:08.224Z,79.13
2023-03-04T21:55:43.036Z,78.39
2023-03-04T21:58:16.427Z,78.40
2023-03-04T22:00:51.757Z,78.17
2023-03-04T22:03:27.204Z,78.96
2023-03-04T22:06:04.931Z,78.78
2023-03-04T22:08:39.680Z,79.31
2023-03-04T22:11:13.170Z,79.01
2023-03-04T22:13:46.294Z,78.85
2023-03-04T22:16:19.592Z,78.92
2023-03-04T22:18:54.077Z,79.21
2023-03-04T22:21:27.205Z,79.24
2023-03-04T22:24:00.477Z,79.99
2023-03-04T22:26:33.474Z,79.80
2023-03-04T22:29:06.944Z,80.08
2023-03-04T22:31:40.562Z,80.41
2023-03-04T22:34:16.855Z,79.09
2023-03-04T22:36:50.257Z,79.75
2023-03-04T22:39:23.456Z,79.61
2023-03-04T22:41:56.641Z,79.91
2023-03-04T22:44:29.727Z,79.93
2023-03-04T22:47:02.782Z,79.74
2023-03-04T22:49:37.850Z,80.35
2023-03-04T22:52:10.875Z,80.68
2023-03-04T22:54:43.983Z,79.60
2023-03-04T22:57:17.011Z,79.90
2023-03-04T22:59:50.123Z,80.53
2023-03-04T23:02:23.187Z,80.30
2023-03-04T23:04:58.927Z,79.70
2023-03-04T23:07:31.941Z,80.32
2023-03-04T23:10:05.690Z,79.60
2023-03-04T23:12:38.744Z,80.35
2023-03-04T23:15:15.040Z,80.83
2023-03-04T23:17:49.110Z,80.19
2023-03-04T23:20:23.775Z,81.16
2023-03-04T23:22:56.780Z,80.96
2023-03-04T23:25:29.791Z,80.16
2023-03-04T23:28:03.072Z,81.82
2023-03-04T23:30:36.249Z,82.38
2023-03-04T23:33:09.306Z,82.42
2023-03-04T23:35:43.878Z,83.22
2023-03-04T23:38:16.939Z,82.28
2023-03-04T23:40:49.988Z,82.59
2023-03-04T23:43:23.025Z,82.38
2023-03-04T23:45:56.177Z,82.45
2023-03-04T23:48:29.295Z,82.61
2023-03-04T23:51:03.697Z,82.82
2023-03-04T23:53:38.985Z,82.47
2023-03-04T23:56:18.388Z,82.50
2023-03-04T23:58:51.841Z,82.43
